Time;durP1;ratioP1;P1;durP2;ratioP2;P2;SDS_P1;SDS_P2;PMS_P1;PMS_P2;Temp;Humidity;BMP_temperature;BMP_pressure;BME280_temperature;BME280_humidity;BME280_pressure;Samples;Min_cycle;Max_cycle;Signal;HPM_P1;HPM_P2
2022/03/10 00:01:30;;;;;;;10.30;7.40;;;;;;;0.82;61.34;101819.75;105610;1281;22557;-72
2022/03/10 00:03:57;;;;;;;11.00;7.80;;;;;;;0.82;61.36;101823.38;105124;1280;23509;-69
2022/03/10 00:06:24;;;;;;;11.80;8.30;;;;;;;0.76;61.26;101825.15;105355;1280;22663;-72
2022/03/10 00:08:51;;;;;;;11.80;7.90;;;;;;;0.71;61.29;101828.55;105447;1280;25303;-71
2022/03/10 00:11:18;;;;;;;11.50;8.30;;;;;;;0.72;61.31;101827.86;105082;1281;22577;-79
2022/03/10 00:13:46;;;;;;;12.80;8.00;;;;;;;0.73;61.30;101836.80;105378;1279;22553;-71
2022/03/10 00:16:14;;;;;;;12.80;8.50;;;;;;;0.73;61.33;101836.42;104680;1287;25338;-71
2022/03/10 00:18:42;;;;;;;13.50;8.20;;;;;;;0.71;61.30;101840.31;104670;1288;25591;-76
2022/03/10 00:21:09;;;;;;;13.60;8.70;;;;;;;0.66;61.02;101834.86;104284;1293;23043;-73
2022/03/10 00:23:36;;;;;;;14.50;8.30;;;;;;;0.64;61.21;101846.48;104241;1292;24108;-68
2022/03/10 00:26:03;;;;;;;14.50;8.50;;;;;;;0.64;61.19;101846.33;104229;1294;23336;-68
2022/03/10 00:28:31;;;;;;;16.80;8.80;;;;;;;0.66;61.14;101848.54;104259;1293;25531;-71
2022/03/10 00:30:58;;;;;;;14.60;8.20;;;;;;;0.67;61.11;101845.64;104144;1294;25427;-70
2022/03/10 00:33:25;;;;;;;12.70;7.80;;;;;;;0.66;61.00;101855.29;104311;1293;25283;-71
2022/03/10 00:35:52;;;;;;;13.20;8.80;;;;;;;0.59;60.96;101847.46;104816;1287;22684;-73
2022/03/10 00:38:19;;;;;;;14.00;8.40;;;;;;;0.57;60.85;101857.08;104948;1285;24351;-78
2022/03/10 00:40:48;;;;;;;12.40;8.30;;;;;;;0.47;60.79;101855.98;104940;1285;25342;-71
2022/03/10 00:43:15;;;;;;;12.50;8.50;;;;;;;0.41;61.02;101863.30;104768;1285;25270;-72
2022/03/10 00:45:42;;;;;;;12.80;8.50;;;;;;;0.40;61.16;101865.29;105271;1279;25356;-72
2022/03/10 00:48:09;;;;;;;13.80;8.90;;;;;;;0.41;61.12;101867.06;105530;1280;22719;-73
2022/03/10 00:50:36;;;;;;;12.90;9.10;;;;;;;0.39;61.13;101869.23;105481;1279;25266;-72
2022/03/10 00:53:06;;;;;;;15.00;8.90;;;;;;;0.36;60.99;101876.36;105443;1281;25271;-73
2022/03/10 00:55:33;;;;;;;12.80;8.60;;;;;;;0.28;60.94;101880.59;105812;1278;25255;-72
2022/03/10 00:58:00;;;;;;;14.10;9.30;;;;;;;0.20;61.22;101886.75;105665;1281;22527;-72
2022/03/10 01:00:28;;;;;;;13.10;8.60;;;;;;;0.20;61.15;101889.70;105507;1281;25271;-71
2022/03/10 01:02:56;;;;;;;14.50;8.80;;;;;;;0.16;61.35;101891.87;105608;1279;22535;-71
2022/03/10 01:05:24;;;;;;;11.20;8.20;;;;;;;0.15;61.28;101895.60;105661;1279;24131;-76
2022/03/10 01:07:51;;;;;;;13.40;9.00;;;;;;;0.15;61.43;101893.88;105556;1279;24266;-72
2022/03/10 01:10:19;;;;;;;12.60;8.60;;;;;;;0.19;61.46;101896.19;105603;1281;22757;-71
2022/03/10 01:12:47;;;;;;;12.90;8.40;;;;;;;0.23;61.44;101899.38;105092;1279;25367;-73
2022/03/10 01:15:34;;;;;;;12.40;8.20;;;;;;;0.22;61.34;101903.30;105635;1280;22573;-73
2022/03/10 01:18:01;;;;;;;12.00;8.30;;;;;;;0.19;61.33;101901.26;105754;1279;25255;-75
2022/03/10 01:20:27;;;;;;;12.60;8.70;;;;;;;0.21;61.40;101904.42;105486;1281;22542;-72
2022/03/10 01:22:55;;;;;;;14.20;9.10;;;;;;;0.20;61.29;101910.65;105530;1282;22549;-73
2022/03/10 01:25:22;;;;;;;12.90;8.90;;;;;;;0.20;61.26;101913.91;105572;1279;22639;-80
2022/03/10 01:27:49;;;;;;;15.20;10.00;;;;;;;0.17;61.18;101916.52;105568;1281;22721;-73
2022/03/10 01:30:17;;;;;;;12.80;8.90;;;;;;;0.12;61.15;101916.92;105027;1285;24350;-74
2022/03/10 01:32:45;;;;;;;16.70;9.60;;;;;;;0.08;61.31;101922.92;104905;1284;22547;-73
2022/03/10 01:35:13;;;;;;;14.20;8.40;;;;;;;0.03;61.18;101927.00;104324;1291;22564;-72
2022/03/10 01:37:41;;;;;;;13.60;9.00;;;;;;;-0.03;61.26;101927.49;104510;1291;24328;-73
2022/03/10 01:40:11;;;;;;;15.90;9.10;;;;;;;-0.02;61.38;101930.52;104380;1291;22497;-73
2022/03/10 01:42:39;;;;;;;12.90;8.70;;;;;;;-0.01;61.50;101934.02;104259;1291;22639;-73
2022/03/10 01:45:08;;;;;;;13.10;8.40;;;;;;;-0.02;61.41;101936.06;104172;1291;24403;-76
2022/03/10 01:47:36;;;;;;;14.40;9.30;;;;;;;-0.11;61.37;101938.98;104472;1291;22866;-72
2022/03/10 01:50:03;;;;;;;12.30;8.20;;;;;;;-0.11;61.53;101940.70;104632;1288;22569;-72
2022/03/10 01:52:31;;;;;;;15.00;9.10;;;;;;;-0.13;61.50;101941.98;104747;1282;25946;-74
2022/03/10 01:54:58;;;;;;;14.30;9.60;;;;;;;-0.15;61.60;101942.41;105087;1282;23130;-73
2022/03/10 01:57:26;;;;;;;14.50;8.60;;;;;;;-0.17;61.54;101949.21;105023;1282;22579;-79
2022/03/10 01:59:54;;;;;;;14.80;9.80;;;;;;;-0.20;61.68;101943.67;105220;1282;22563;-72
2022/03/10 02:02:21;;;;;;;17.20;10.10;;;;;;;-0.12;61.60;101952.61;105553;1281;22646;-72
2022/03/10 02:04:48;;;;;;;14.80;9.50;;;;;;;-0.08;61.55;101957.68;105257;1281;22570;-72
2022/03/10 02:10:16;;;;;;;13.30;8.70;;;;;;;-0.07;61.38;101966.73;105150;1282;24140;-75
2022/03/10 02:12:49;;;;;;;15.00;9.70;;;;;;;-0.15;61.34;101972.90;105561;1281;26508;-71
2022/03/10 02:18:16;;;;;;;13.00;8.30;;;;;;;-0.21;61.34;101978.37;105191;1281;25534;-72
2022/03/10 02:20:43;;;;;;;12.60;8.50;;;;;;;-0.24;61.48;101978.21;105606;1281;26627;-68
2022/03/10 02:23:11;;;;;;;13.80;8.50;;;;;;;-0.24;61.36;101981.14;105185;1282;24202;-71
2022/03/10 02:25:40;;;;;;;15.90;10.30;;;;;;;-0.23;61.35;101978.93;105307;1281;22569;-71
2022/03/10 02:28:07;;;;;;;12.90;9.10;;;;;;;-0.20;61.47;101979.70;105417;1281;22880;-76
2022/03/10 02:30:35;;;;;;;14.40;9.20;;;;;;;-0.17;61.40;101980.35;105308;1282;22567;-73
2022/03/10 02:33:03;;;;;;;12.30;8.70;;;;;;;-0.19;61.13;101983.39;105293;1281;22747;-74
2022/03/10 02:35:30;;;;;;;13.30;8.90;;;;;;;-0.19;61.13;101984.95;105402;1281;22719;-81
2022/03/10 02:37:57;;;;;;;14.40;9.80;;;;;;;-0.15;61.05;101991.73;104819;1288;22951;-74
2022/03/10 02:40:25;;;;;;;13.30;8.50;;;;;;;-0.18;60.91;101996.92;105015;1285;25258;-73
2022/03/10 02:42:52;;;;;;;15.60;9.50;;;;;;;-0.27;60.81;101998.30;104404;1293;25397;-74
2022/03/10 02:45:22;;;;;;;13.60;8.90;;;;;;;-0.26;60.90;102001.30;104074;1297;25276;-74
2022/03/10 02:47:49;;;;;;;14.30;8.90;;;;;;;-0.26;60.96;102006.69;104163;1296;24268;-74
2022/03/10 02:50:16;;;;;;;12.50;8.40;;;;;;;-0.32;60.89;102012.89;103725;1300;24292;-74
2022/03/10 02:52:44;;;;;;;13.50;9.30;;;;;;;-0.33;60.79;102016.11;103805;1299;24461;-74
2022/03/10 02:55:12;;;;;;;14.20;8.90;;;;;;;-0.35;60.86;102020.48;103615;1299;22585;-75
2022/03/10 02:57:39;;;;;;;12.90;9.20;;;;;;;-0.36;60.69;102025.45;103946;1296;25404;-75
2022/03/10 03:00:08;;;;;;;12.70;8.60;;;;;;;-0.39;60.68;102032.91;104276;1296;22731;-73
2022/03/10 03:02:36;;;;;;;13.40;8.90;;;;;;;-0.45;60.56;102036.63;104486;1293;24291;-72
2022/03/10 03:05:04;;;;;;;10.70;8.40;;;;;;;-0.45;60.62;102041.83;105128;1287;25269;-72
2022/03/10 03:07:31;;;;;;;13.40;8.10;;;;;;;-0.49;60.41;102041.98;105027;1287;25451;-80
2022/03/10 03:09:58;;;;;;;13.10;8.10;;;;;;;-0.54;60.56;102045.82;105179;1281;22766;-74
2022/03/10 03:12:25;;;;;;;16.00;8.90;;;;;;;-0.59;60.63;102047.42;105296;1281;24698;-74
2022/03/10 03:14:53;;;;;;;15.30;8.30;;;;;;;-0.57;60.61;102049.60;105194;1282;22501;-73
2022/03/10 03:17:20;;;;;;;13.60;8.40;;;;;;;-0.59;60.52;102048.41;104958;1284;22538;-72
2022/03/10 03:19:47;;;;;;;12.20;7.70;;;;;;;-0.62;60.45;102056.24;104951;1285;25307;-73
2022/03/10 03:22:14;;;;;;;13.20;7.80;;;;;;;-0.63;60.52;102059.08;104817;1287;25322;-74
2022/03/10 03:24:42;;;;;;;11.60;8.30;;;;;;;-0.65;60.34;102057.41;104668;1288;25598;-72
2022/03/10 03:27:09;;;;;;;12.10;8.00;;;;;;;-0.68;60.09;102067.21;104834;1287;22556;-74
2022/03/10 03:29:35;;;;;;;16.00;9.90;;;;;;;-0.79;60.23;102066.39;104929;1287;22904;-80
2022/03/10 03:32:03;;;;;;;12.40;7.80;;;;;;;-0.84;60.28;102070.94;104592;1287;22673;-75
2022/03/10 03:34:30;;;;;;;13.10;8.90;;;;;;;-0.86;60.37;102072.31;104595;1289;22597;-75
2022/03/10 03:36:57;;;;;;;10.70;7.60;;;;;;;-0.85;60.30;102076.88;104832;1285;22560;-74
2022/03/10 03:39:24;;;;;;;14.10;8.90;;;;;;;-0.87;60.24;102077.48;105059;1285;22615;-73
2022/03/10 03:41:51;;;;;;;11.90;8.40;;;;;;;-0.85;60.15;102082.60;105094;1287;22550;-73
2022/03/10 03:44:18;;;;;;;11.20;8.60;;;;;;;-0.91;60.01;102079.13;104992;1287;22686;-72
2022/03/10 03:46:45;;;;;;;11.50;8.00;;;;;;;-0.91;59.99;102087.08;104937;1287;22767;-75
2022/03/10 03:49:12;;;;;;;12.20;8.50;;;;;;;-0.92;59.92;102088.52;104998;1285;22489;-73
2022/03/10 03:51:39;;;;;;;11.90;8.00;;;;;;;-0.94;59.81;102099.84;105067;1285;22857;-74
2022/03/10 03:54:07;;;;;;;12.60;8.20;;;;;;;-0.94;59.81;102101.06;104985;1285;23022;-72
2022/03/10 03:56:37;;;;;;;11.60;7.70;;;;;;;-0.99;59.57;102104.89;104811;1285;22656;-74
2022/03/10 03:59:04;;;;;;;12.10;7.50;;;;;;;-1.04;59.61;102106.12;104780;1285;22667;-71
2022/03/10 04:01:31;;;;;;;10.40;7.30;;;;;;;-1.09;59.49;102110.77;105475;1281;25326;-73
2022/03/10 04:03:59;;;;;;;13.30;7.90;;;;;;;-1.13;59.32;102109.53;105381;1282;25413;-71
2022/03/10 04:06:26;;;;;;;10.80;6.90;;;;;;;-1.15;59.36;102112.48;105153;1282;22636;-74
2022/03/10 04:08:53;;;;;;;11.60;7.10;;;;;;;-1.16;59.31;102117.07;105876;1279;24832;-74
2022/03/10 04:11:20;;;;;;;11.50;7.30;;;;;;;-1.19;59.44;102108.75;105562;1281;24242;-73
2022/03/10 04:13:47;;;;;;;10.20;7.20;;;;;;;-1.15;59.12;102120.31;105051;1285;22588;-73
2022/03/10 04:16:17;;;;;;;12.80;7.50;;;;;;;-1.18;59.11;102120.94;105534;1281;24392;-78
2022/03/10 04:18:44;;;;;;;10.80;7.50;;;;;;;-1.19;59.17;102119.32;105685;1279;24335;-71
2022/03/10 04:21:11;;;;;;;14.90;8.20;;;;;;;-1.21;59.04;102121.75;105613;1279;24078;-73
2022/03/10 04:23:38;;;;;;;12.30;8.00;;;;;;;-1.26;58.93;102124.25;105332;1281;25593;-80
2022/03/10 04:26:05;;;;;;;16.00;7.40;;;;;;;-1.30;58.86;102128.11;105104;1282;22642;-73
2022/03/10 04:28:33;;;;;;;12.80;7.70;;;;;;;-1.33;58.99;102131.90;105572;1281;22548;-71
2022/03/10 04:31:01;;;;;;;11.00;7.20;;;;;;;-1.32;58.88;102132.64;105617;1281;22561;-73
2022/03/10 04:33:28;;;;;;;12.20;7.80;;;;;;;-1.31;58.96;102133.41;105092;1281;24242;-72
2022/03/10 04:35:56;;;;;;;10.30;7.30;;;;;;;-1.29;58.83;102141.50;105628;1281;25410;-73
2022/03/10 04:38:25;;;;;;;14.20;7.50;;;;;;;-1.30;58.71;102138.48;105683;1281;26575;-75
2022/03/10 04:40:52;;;;;;;12.50;7.80;;;;;;;-1.31;58.56;102144.64;105192;1285;22607;-73
2022/03/10 04:43:19;;;;;;;11.80;7.50;;;;;;;-1.35;58.50;102147.67;104714;1288;22577;-74
2022/03/10 04:45:46;;;;;;;11.10;7.80;;;;;;;-1.36;58.55;102150.00;104476;1290;22573;-75
2022/03/10 04:48:13;;;;;;;10.90;7.60;;;;;;;-1.34;58.52;102153.41;104805;1288;22648;-74
2022/03/10 04:50:40;;;;;;;12.50;7.20;;;;;;;-1.32;58.42;102153.34;104859;1288;24565;-83
2022/03/10 04:53:07;;;;;;;14.30;8.30;;;;;;;-1.37;58.11;102155.44;104559;1288;22565;-73
2022/03/10 04:55:35;;;;;;;12.60;7.20;;;;;;;-1.44;58.26;102164.31;104665;1288;26545;-71
2022/03/10 04:58:02;;;;;;;13.00;7.60;;;;;;;-1.41;58.30;102165.36;104737;1288;22898;-73
2022/03/10 05:00:29;;;;;;;10.40;6.70;;;;;;;-1.41;58.16;102167.97;104446;1290;25257;-73
2022/03/10 05:02:57;;;;;;;10.50;6.50;;;;;;;-1.47;58.03;102168.05;104427;1291;26910;-73
2022/03/10 05:05:24;;;;;;;11.70;6.80;;;;;;;-1.47;58.21;102175.48;104505;1290;25388;-72
2022/03/10 05:07:51;;;;;;;13.90;7.30;;;;;;;-1.45;58.09;102179.08;104035;1290;24555;-71
2022/03/10 05:10:18;;;;;;;10.00;6.40;;;;;;;-1.47;58.00;102182.59;104223;1290;22777;-73
2022/03/10 05:12:54;;;;;;;13.50;7.30;;;;;;;-1.45;58.03;102187.73;104576;1290;27357;-76
2022/03/10 05:15:26;;;;;;;11.00;6.80;;;;;;;-1.40;57.88;102196.58;104616;1290;24227;-74
2022/03/10 05:17:54;;;;;;;10.60;7.10;;;;;;;-1.39;57.66;102201.84;104688;1288;25672;-75
2022/03/10 05:20:21;;;;;;;10.10;6.70;;;;;;;-1.39;57.49;102205.95;105150;1284;22852;-75
2022/03/10 05:22:51;;;;;;;12.90;7.20;;;;;;;-1.42;57.45;102207.83;104839;1288;24253;-88
2022/03/10 05:25:19;;;;;;;14.40;8.00;;;;;;;-1.40;57.62;102211.25;104868;1282;188260;-79
2022/03/10 05:27:47;;;;;;;14.30;7.90;;;;;;;-1.38;57.29;102215.39;105689;1279;24266;-81
2022/03/10 05:30:15;;;;;;;11.50;7.20;;;;;;;-1.42;57.19;102219.27;105098;1285;25543;-78
2022/03/10 05:32:42;;;;;;;10.80;6.70;;;;;;;-1.45;57.05;102225.77;105345;1284;22542;-78
2022/03/10 05:35:11;;;;;;;14.30;7.10;;;;;;;-1.50;57.14;102234.23;105024;1285;24243;-78
2022/03/10 05:37:40;;;;;;;15.00;7.70;;;;;;;-1.47;57.18;102241.73;104930;1285;25235;-78
2022/03/10 05:40:09;;;;;;;13.20;8.00;;;;;;;-1.46;57.01;102248.70;105068;1285;24363;-79
2022/03/10 05:42:41;;;;;;;10.00;6.90;;;;;;;-1.46;57.22;102251.29;105208;1285;25385;-79
2022/03/10 05:45:09;;;;;;;12.40;6.80;;;;;;;-1.48;57.45;102253.21;105185;1285;22623;-78
2022/03/10 05:47:38;;;;;;;13.80;7.30;;;;;;;-1.50;57.45;102256.05;105070;1285;23862;-80
2022/03/10 05:50:07;;;;;;;12.00;7.20;;;;;;;-1.48;57.20;102260.16;106327;1281;22869;-89
2022/03/10 05:52:36;;;;;;;11.50;7.60;;;;;;;-1.45;57.30;102266.08;105295;1282;22879;-78
2022/03/10 05:55:04;;;;;;;12.30;7.00;;;;;;;-1.50;57.13;102265.41;105653;1281;23756;-78
2022/03/10 05:57:31;;;;;;;11.50;7.80;;;;;;;-1.48;57.00;102270.52;105653;1282;22554;-81
2022/03/10 05:59:58;;;;;;;18.10;8.50;;;;;;;-1.50;56.79;102273.50;106180;1281;25381;-75
2022/03/10 06:02:25;;;;;;;15.30;7.90;;;;;;;-1.48;56.94;102274.80;105548;1285;25974;-76
2022/03/10 06:04:53;;;;;;;11.50;8.10;;;;;;;-1.39;56.87;102278.88;106126;1284;22961;-78
2022/03/10 06:07:19;;;;;;;13.50;7.20;;;;;;;-1.39;56.80;102280.48;106392;1284;24363;-82
2022/03/10 06:09:48;;;;;;;15.20;8.20;;;;;;;-1.41;56.64;102283.76;105740;1284;24237;-84
2022/03/10 06:12:23;;;;;;;14.80;7.80;;;;;;;-1.39;56.55;102291.21;105534;1284;25571;-80
2022/03/10 06:15:03;;;;;;;13.10;8.50;;;;;;;-1.35;56.41;102297.52;105186;1285;24213;-78
2022/03/10 06:17:30;;;;;;;11.60;7.50;;;;;;;-1.37;56.17;102294.27;104866;1285;25540;-78
2022/03/10 06:19:58;;;;;;;13.40;8.00;;;;;;;-1.35;56.14;102301.28;105411;1282;22573;-85
2022/03/10 06:22:33;;;;;;;12.30;7.20;;;;;;;-1.44;55.91;102306.42;105353;1283;25635;-75
2022/03/10 06:25:01;;;;;;;13.60;7.60;;;;;;;-1.38;56.03;102315.13;105454;1281;24308;-74
2022/03/10 06:27:36;;;;;;;13.40;8.10;;;;;;;-1.30;55.97;102317.07;105442;1282;24345;-78
2022/03/10 06:30:04;;;;;;;11.40;7.20;;;;;;;-1.25;55.84;102323.42;105508;1281;25407;-72
2022/03/10 06:32:31;;;;;;;14.00;8.00;;;;;;;-1.23;55.67;102326.33;105280;1282;22576;-76
2022/03/10 06:34:59;;;;;;;11.90;7.60;;;;;;;-1.22;55.68;102326.91;105802;1281;22611;-87
2022/03/10 06:37:27;;;;;;;14.10;7.60;;;;;;;-1.16;55.61;102329.05;107157;1273;22554;-83
2022/03/10 06:39:54;;;;;;;11.60;7.10;;;;;;;-1.14;55.53;102333.01;105596;1281;22548;-83
2022/03/10 06:42:21;;;;;;;17.10;7.80;;;;;;;-1.12;55.32;102331.25;105476;1282;23876;-83
2022/03/10 06:44:48;;;;;;;12.70;7.30;;;;;;;-1.09;55.35;102334.55;105491;1281;22541;-84
2022/03/10 06:47:17;;;;;;;12.40;7.10;;;;;;;-1.03;55.10;102338.60;105678;1281;25586;-84
2022/03/10 06:49:43;;;;;;;15.00;7.90;;;;;;;-0.99;54.74;102339.95;106382;1281;23787;-83
2022/03/10 06:52:10;;;;;;;13.40;7.70;;;;;;;-0.95;54.57;102338.31;106470;1281;22772;-83
2022/03/10 06:54:39;;;;;;;10.70;7.00;;;;;;;-0.89;54.42;102340.80;106318;1281;22698;-84
2022/03/10 06:57:07;;;;;;;14.30;7.00;;;;;;;-0.82;53.97;102343.36;106195;1281;22484;-83
2022/03/10 06:59:34;;;;;;;11.50;6.10;;;;;;;-0.76;53.76;102342.23;106125;1281;25236;-83
2022/03/10 07:02:01;;;;;;;15.10;6.60;;;;;;;-0.70;53.60;102349.50;106308;1281;25345;-83
2022/03/10 07:04:28;;;;;;;10.00;5.90;;;;;;;-0.65;53.31;102347.98;105486;1281;24244;-84
2022/03/10 07:06:55;;;;;;;9.10;5.70;;;;;;;-0.58;53.24;102351.35;105318;1284;22624;-83
2022/03/10 07:09:22;;;;;;;9.10;5.40;;;;;;;-0.57;53.08;102348.86;105300;1284;22553;-83
2022/03/10 07:11:49;;;;;;;10.80;6.00;;;;;;;-0.59;52.67;102348.57;105387;1281;24341;-83
2022/03/10 07:14:16;;;;;;;9.60;6.10;;;;;;;-0.59;52.68;102351.46;105709;1281;25256;-84
2022/03/10 07:16:43;;;;;;;11.50;6.00;;;;;;;-0.54;52.51;102350.98;105226;1282;22650;-83
2022/03/10 07:19:12;;;;;;;10.20;5.50;;;;;;;-0.48;52.29;102354.77;105521;1281;25414;-82
2022/03/10 07:21:40;;;;;;;8.60;6.10;;;;;;;-0.48;52.00;102354.27;105698;1281;26519;-83
2022/03/10 07:24:07;;;;;;;10.70;5.60;;;;;;;-0.48;52.00;102350.10;105471;1281;24337;-83
2022/03/10 07:26:34;;;;;;;11.10;5.20;;;;;;;-0.43;51.86;102353.58;105563;1282;22528;-84
2022/03/10 07:29:01;;;;;;;7.80;5.50;;;;;;;-0.41;51.61;102358.91;105219;1281;22742;-84
2022/03/10 07:31:29;;;;;;;9.70;5.70;;;;;;;-0.33;51.72;102360.98;105167;1282;25684;-84
2022/03/10 07:33:57;;;;;;;10.10;5.90;;;;;;;-0.28;51.74;102359.80;105124;1282;23691;-83
2022/03/10 07:36:25;;;;;;;11.20;5.60;;;;;;;-0.26;51.49;102361.65;105341;1282;25542;-84
2022/03/10 07:38:52;;;;;;;8.40;5.60;;;;;;;-0.22;51.42;102359.48;105501;1281;22561;-85
2022/03/10 07:41:20;;;;;;;6.70;4.70;;;;;;;-0.19;51.36;102361.90;105308;1281;24300;-85
2022/03/10 07:43:47;;;;;;;7.50;4.40;;;;;;;-0.17;51.37;102358.95;105536;1281;22636;-83
2022/03/10 07:46:14;;;;;;;11.70;5.00;;;;;;;-0.17;51.00;102357.91;105396;1279;24318;-84
2022/03/10 07:48:41;;;;;;;7.20;4.60;;;;;;;-0.19;50.93;102352.77;105364;1281;22551;-84
2022/03/10 07:51:08;;;;;;;8.00;5.10;;;;;;;-0.14;51.08;102351.55;105344;1281;22566;-83
2022/03/10 07:53:36;;;;;;;8.70;5.10;;;;;;;-0.06;50.94;102355.68;105204;1281;24242;-84
2022/03/10 07:56:04;;;;;;;7.70;4.70;;;;;;;0.01;50.85;102358.38;105216;1282;24309;-81
2022/03/10 07:58:32;;;;;;;6.60;4.40;;;;;;;0.10;50.59;102363.80;105235;1280;24245;-84
2022/03/10 08:00:59;;;;;;;9.30;4.50;;;;;;;0.14;50.29;102360.61;105722;1281;23683;-84
2022/03/10 08:03:27;;;;;;;8.20;5.20;;;;;;;0.16;50.00;102366.98;105653;1281;22545;-82
2022/03/10 08:05:54;;;;;;;10.60;5.90;;;;;;;0.18;50.10;102366.21;105565;1281;25263;-82
2022/03/10 08:08:21;;;;;;;12.40;5.00;;;;;;;0.26;50.14;102364.66;104745;1287;22562;-80
2022/03/10 08:10:48;;;;;;;7.00;5.20;;;;;;;0.35;50.02;102368.86;104808;1288;25915;-80
2022/03/10 08:13:16;;;;;;;8.00;5.20;;;;;;;0.42;49.79;102369.85;105101;1288;25270;-82
2022/03/10 08:15:44;;;;;;;5.70;4.30;;;;;;;0.47;49.70;102365.83;104994;1287;22740;-84
2022/03/10 08:18:13;;;;;;;6.50;5.10;;;;;;;0.52;49.74;102369.13;104990;1287;22633;-83
2022/03/10 08:20:41;;;;;;;8.90;5.50;;;;;;;0.59;49.34;102367.44;104986;1287;24221;-84
2022/03/10 08:23:11;;;;;;;9.70;5.20;;;;;;;0.66;49.32;102365.27;105033;1287;24282;-83
2022/03/10 08:25:38;;;;;;;9.30;4.50;;;;;;;0.73;49.24;102362.48;105460;1287;24224;-83
2022/03/10 08:28:08;;;;;;;6.60;4.30;;;;;;;0.76;48.81;102364.39;105273;1287;24280;-82
2022/03/10 08:30:35;;;;;;;6.40;4.20;;;;;;;0.86;48.48;102358.87;105054;1287;22875;-84
2022/03/10 08:33:02;;;;;;;5.60;3.90;;;;;;;0.96;48.19;102364.38;105009;1282;23129;-82
2022/03/10 08:35:29;;;;;;;6.20;4.20;;;;;;;1.03;47.99;102366.52;105361;1281;23574;-82
2022/03/10 08:37:57;;;;;;;7.00;4.10;;;;;;;1.13;47.77;102366.95;105311;1281;24343;-82
2022/03/10 08:40:25;;;;;;;4.70;3.60;;;;;;;1.19;47.26;102365.28;105517;1281;24216;-84
2022/03/10 08:42:52;;;;;;;7.40;4.00;;;;;;;1.26;46.87;102362.01;105557;1281;22537;-83
2022/03/10 08:45:20;;;;;;;8.00;4.40;;;;;;;1.32;46.64;102366.73;105661;1281;24271;-85
2022/03/10 08:47:46;;;;;;;5.80;3.80;;;;;;;1.43;46.34;102363.37;105477;1282;22650;-83
2022/03/10 08:50:20;;;;;;;6.30;4.20;;;;;;;1.53;46.18;102362.92;105284;1281;25384;-83
2022/03/10 08:52:48;;;;;;;6.00;3.80;;;;;;;1.66;45.45;102364.24;105453;1282;25399;-85
2022/03/10 08:55:15;;;;;;;4.50;3.60;;;;;;;1.81;45.02;102367.36;105687;1281;22694;-82
2022/03/10 08:57:42;;;;;;;5.90;3.40;;;;;;;1.94;44.67;102360.66;105868;1281;24327;-84
2022/03/10 09:00:11;;;;;;;5.10;3.50;;;;;;;2.04;44.40;102360.14;105455;1282;27119;-83
2022/03/10 09:02:40;;;;;;;5.90;3.70;;;;;;;2.17;44.45;102362.11;105526;1281;22755;-85
2022/03/10 09:05:08;;;;;;;4.70;3.20;;;;;;;2.33;43.69;102361.23;105655;1281;22580;-84
2022/03/10 09:07:36;;;;;;;7.70;4.10;;;;;;;2.49;43.22;102359.03;105757;1279;22486;-83
2022/03/10 09:10:10;;;;;;;4.80;3.40;;;;;;;2.70;42.70;102361.55;107363;1279;22537;-84
2022/03/10 09:12:39;;;;;;;8.30;3.80;;;;;;;2.86;42.27;102360.89;106235;1282;22510;-84
2022/03/10 09:15:07;;;;;;;6.80;3.80;;;;;;;3.06;41.89;102360.53;107496;1281;22567;-83
2022/03/10 09:17:34;;;;;;;5.40;3.60;;;;;;;3.26;41.52;102360.02;107789;1281;22716;-85
2022/03/10 09:20:04;;;;;;;6.10;3.70;;;;;;;3.46;41.03;102358.63;106943;1279;22594;-85
2022/03/10 09:22:32;;;;;;;6.50;3.40;;;;;;;3.65;40.36;102349.80;107082;1281;22549;-83
2022/03/10 09:25:02;;;;;;;4.50;3.20;;;;;;;3.74;40.03;102349.39;105886;1281;24226;-85
2022/03/10 09:27:30;;;;;;;7.80;3.90;;;;;;;3.86;40.04;102346.14;105730;1281;22638;-82
2022/03/10 09:29:57;;;;;;;5.70;4.20;;;;;;;4.02;39.52;102349.92;105534;1282;24276;-83
2022/03/10 09:32:24;;;;;;;5.30;3.40;;;;;;;4.21;39.29;102343.31;105305;1281;24369;-84
2022/03/10 09:34:51;;;;;;;5.00;3.50;;;;;;;4.35;38.59;102344.67;105489;1279;22706;-84
2022/03/10 09:37:18;;;;;;;4.50;3.00;;;;;;;4.48;38.15;102347.55;105854;1281;22892;-83
2022/03/10 09:39:45;;;;;;;6.00;3.60;;;;;;;4.55;37.83;102345.98;105546;1281;22629;-82
2022/03/10 09:42:14;;;;;;;4.90;3.50;;;;;;;4.69;37.89;102346.77;105715;1281;24783;-84
2022/03/10 09:44:43;;;;;;;6.50;3.60;;;;;;;4.86;37.71;102347.20;105241;1281;25387;-83
2022/03/10 09:47:10;;;;;;;7.10;3.40;;;;;;;5.03;37.66;102348.33;105561;1281;22624;-84
2022/03/10 09:49:37;;;;;;;4.70;3.70;;;;;;;5.11;37.03;102348.86;105581;1281;25610;-82
2022/03/10 09:52:05;;;;;;;8.40;4.50;;;;;;;5.17;37.16;102344.93;105581;1281;25292;-84
2022/03/10 09:54:31;;;;;;;4.60;3.30;;;;;;;5.33;37.05;102350.52;105414;1281;26109;-81
2022/03/10 09:56:59;;;;;;;5.50;3.60;;;;;;;5.53;36.78;102346.52;105536;1281;23993;-83
2022/03/10 09:59:27;;;;;;;5.20;3.30;;;;;;;5.71;36.39;102347.95;105392;1280;25383;-84
2022/03/10 10:01:54;;;;;;;5.20;3.40;;;;;;;5.78;36.29;102347.20;105712;1281;22482;-84
2022/03/10 10:04:23;;;;;;;6.30;3.50;;;;;;;5.90;35.92;102353.48;105514;1282;24320;-84
2022/03/10 10:07:05;;;;;;;6.30;3.90;;;;;;;5.94;35.69;102353.81;105339;1282;25221;-81
2022/03/10 10:09:59;;;;;;;6.30;4.10;;;;;;;6.12;35.54;102357.91;105301;1285;24563;-81
2022/03/10 10:12:30;;;;;;;5.60;3.50;;;;;;;6.20;35.07;102361.38;105098;1285;25372;-81
2022/03/10 10:15:00;;;;;;;5.90;3.70;;;;;;;6.30;35.04;102360.20;104671;1285;22489;-82
2022/03/10 10:17:30;;;;;;;8.90;4.30;;;;;;;6.41;35.05;102364.31;105273;1285;24223;-84
2022/03/10 10:20:17;;;;;;;6.20;3.80;;;;;;;6.59;35.00;102362.55;104968;1285;22567;-84
2022/03/10 10:22:47;;;;;;;10.00;3.80;;;;;;;6.79;34.48;102364.36;104991;1285;25610;-83
2022/03/10 10:25:20;;;;;;;7.60;3.80;;;;;;;6.94;34.19;102363.86;104828;1288;25426;-84
2022/03/10 10:27:48;;;;;;;5.30;3.50;;;;;;;7.19;33.88;102359.52;105465;1281;24291;-85
2022/03/10 10:30:15;;;;;;;5.10;3.50;;;;;;;7.38;33.37;102357.23;105813;1281;24445;-83
2022/03/10 10:32:42;;;;;;;6.40;3.50;;;;;;;7.45;33.15;102363.09;105312;1281;23932;-85
2022/03/10 10:35:13;;;;;;;8.20;3.70;;;;;;;7.55;33.00;102364.84;105738;1281;25540;-86
2022/03/10 10:37:48;;;;;;;4.60;3.30;;;;;;;7.61;33.07;102365.73;105788;1281;24353;-85
2022/03/10 10:40:24;;;;;;;6.30;3.60;;;;;;;7.65;32.90;102358.35;105763;1281;25951;-82
2022/03/10 10:42:51;;;;;;;5.90;3.40;;;;;;;7.76;32.85;102361.34;105773;1281;22537;-84
2022/03/10 10:45:27;;;;;;;6.30;3.50;;;;;;;7.88;32.37;102362.98;105463;1284;23521;-84
2022/03/10 10:48:06;;;;;;;7.70;3.50;;;;;;;8.08;32.02;102367.16;105213;1284;22576;-84
2022/03/10 10:50:36;;;;;;;3.60;3.00;;;;;;;8.32;31.69;102363.54;105157;1285;22554;-83
2022/03/10 10:53:05;;;;;;;5.40;3.30;;;;;;;8.50;31.24;102359.33;105360;1285;22540;-83
2022/03/10 10:55:41;;;;;;;5.90;3.00;;;;;;;8.62;31.04;102364.31;104791;1287;22553;-85
2022/03/10 10:58:15;;;;;;;3.90;3.10;;;;;;;8.76;30.78;102354.52;105022;1287;24938;-83
2022/03/10 11:00:49;;;;;;;3.20;2.70;;;;;;;8.72;30.41;102354.06;104846;1288;25344;-83
2022/03/10 11:03:28;;;;;;;6.60;3.10;;;;;;;8.78;30.07;102358.46;104914;1285;27063;-83
2022/03/10 11:05:58;;;;;;;4.70;3.30;;;;;;;8.83;29.79;102362.98;105222;1284;25248;-84
2022/03/10 11:08:28;;;;;;;7.30;3.10;;;;;;;8.87;29.65;102362.94;104830;1287;22569;-84
2022/03/10 11:10:55;;;;;;;8.40;3.40;;;;;;;8.97;29.77;102355.34;104972;1287;22548;-83
2022/03/10 11:13:23;;;;;;;6.60;4.00;;;;;;;9.05;29.72;102357.15;105086;1285;25562;-84
2022/03/10 11:15:53;;;;;;;5.30;3.40;;;;;;;9.15;29.49;102348.09;105720;1281;22487;-86
2022/03/10 11:18:22;;;;;;;6.70;3.10;;;;;;;9.28;29.06;102347.05;105650;1281;24299;-84
2022/03/10 11:20:54;;;;;;;5.80;3.10;;;;;;;9.43;28.60;102351.69;105743;1281;25961;-83
2022/03/10 11:24:12;;;;;;;5.20;3.50;;;;;;;9.54;28.13;102345.11;104900;1285;22559;-83
2022/03/10 11:26:55;;;;;;;5.10;2.70;;;;;;;9.56;27.75;102344.11;104585;1291;22579;-83